Villa Verona, California
Current Conditions -  °F | °C
As of 8:53 AM on Thursday 23 Oct 2014 (Local Time) from KOVE Reporting Station
Clear Clear  
Wind Chill: 61°   Ceiling: Unl
Heat Index: 61°   Visibility: 10mi
Dew Point: 50°   Wind: 5mph
Humidity: 67%   Direction: 110°ESE
Pressure: 30.07"   Gusts: NA
Location:  39.5324°N, 121.648°W
Report Text: KOVE 231553Z AUTO 11004KT 10SM CLR 16/10 A3007 RMK AO2 SLP184 T01610100
Loading
Personal Weather Stations






























Interactive Weather Map
Tropical Storm Tracking
New forecast layout! Learn more

10-Day Weather Forecast

Advertisements
Track Severe Weather on mobile